Oceanside, CA

3:13 AM PDT on April 21, 2015 (GMT -0700)
Oceanside | | Change Station
CLOSE
Current Station
Personal Weather Station
Location: Oceanside, CA
Elevation: 138 ft
Nearby Weather Stations

Elev 138 ft 33.19 °N, 117.37 °W | Updated 3 minutes ago

Overcast
Overcast
60.7 °F
Feels Like 60.7 °F
N
1.0
Wind Variable Wind from SW
Gusts 1.0 mph

Today
High -- | Low -- °F
--% Chance of Precip.
Yesterday
High -- | Low -- °F
Precip. -- in
6:12 AM 7:24 PM
Waxing Crescent, 9% visible
Pressure 29.89 in
Visibility 10.0 miles
Clouds Overcast 2800 ft
Dew Point 52 °F
Humidity 74%
Rainfall 0.00 in
Snow Depth Not available.
UV 0 out of 12
Pollen 8.90 out of 12
Air Quality Not available.
Flu Activity Sporadic
METAR KOKB 210952Z AUTO 00000KT 10SM OVC028 16/09 A2989 RMK AO2 SLP120 T01610089

More Conditions Fewer Conditions

Pressure 29.89 in
Visibility 10.0 miles
Clouds Overcast 2800 ft
Dew Point 52 °F
Humidity 74%
Rainfall 0.00 in
Snow Depth Not available.
UV 0 out of 12
Pollen 8.90 out of 12
Air Quality Not available.
Flu Activity Sporadic
METAR KOKB 210952Z AUTO 00000KT 10SM OVC028 16/09 A2989 RMK AO2 SLP120 T01610089

More Conditions Fewer Conditions

10-Day Weather Forecast

Almanac

Astronomy

Apr. 21, 2015 Rise Set
Actual Time
Civil Twilight
Nautical Twilight
Astronomical Twilight
Moon
Length of Visible Light
Length of Day
Tomorrow will be .
, % of the Moon is Illuminated

Today's Extremes

State Highs State Lows

Community

WunderPhotos

Upload Photos

1,815,337 photos uploaded!

WunderBlogs® & News

Nearby

Air Quality

  Air Quality AQ Index Pollutant
Not available.

Snow Depth

Station Depth Elevation

Earthquake Activity

City Distance Mag. Time & Date
Minimum magnitude displayed is 2.5.

Coastal Water Temperatures

Place Temperature

Stations

Nearby Weather Stations

Station Location Temp. Windchill Dew Point Humidity Wind Precip. Elev Updated Type